Terminal Aerodrome Forecast
Issued by NWS Wilmington, NC

Home | Current Version | Previous Version | Text Only | Print | Product List | Glossary On
Versions: 1 2 3 4 5 6 7 8 9 10 11 12 13
000
FTUS42 KILM 211700
TAFLBT
TAF
KLBT 211720Z 2118/2218 04008KT P6SM SCT035 BKN050 OVC100
     FM212300 04008KT P6SM VCSH SCT020 BKN035 OVC050
     FM220400 03009KT 6SM -RA BR SCT006 OVC018
     FM220600 02009KT 4SM -RA BR BKN006 OVC015=

USA.gov is the U.S. government's official web portal to all federal, state and local government web resources and services.